Time;durP1;ratioP1;P1;durP2;ratioP2;P2;SDS_P1;SDS_P2;PMS_P1;PMS_P2;Temp;Humidity;BMP_temperature;BMP_pressure;BME280_temperature;BME280_humidity;BME280_pressure;Samples;Min_cycle;Max_cycle;Signal;HPM_P1;HPM_P2
2021/01/24 00:01:46;;;;;;;;;;;3.10;99.90;;;;;;5051805;28;19913;-86
2021/01/24 00:04:11;;;;;;;;;;;3.00;99.90;;;;;;5052635;28;19963;-89
2021/01/24 00:06:38;;;;;;;;;;;3.00;99.90;;;;;;5052505;28;22159;-87
2021/01/24 00:09:04;;;;;;;;;;;3.00;99.90;;;;;;5050807;28;20847;-87
2021/01/24 00:11:29;;;;;;;;;;;2.90;99.90;;;;;;5041402;28;20007;-87
2021/01/24 00:13:55;;;;;;;;;;;2.90;99.90;;;;;;5052591;28;19917;-85
2021/01/24 00:16:20;;;;;;;;;;;3.00;99.90;;;;;;5021452;28;19991;-86
2021/01/24 00:18:46;;;;;;;;;;;3.00;99.90;;;;;;5052619;28;19923;-86
2021/01/24 00:21:11;;;;;;;;;;;2.90;99.90;;;;;;5033494;28;19917;-86
2021/01/24 00:23:36;;;;;;;;;;;2.90;99.90;;;;;;5033302;28;19912;-86
2021/01/24 00:26:02;;;;;;;;;;;2.90;99.90;;;;;;5052494;28;19925;-86
2021/01/24 00:28:27;;;;;;;;;;;2.90;99.90;;;;;;5052189;28;19917;-84
2021/01/24 00:30:53;;;;;;;;;;;2.90;99.90;;;;;;5034012;28;19913;-86
2021/01/24 00:33:18;;;;;;;;;;;2.80;99.90;;;;;;5033260;28;19913;-86
2021/01/24 00:35:44;;;;;;;;;;;2.80;99.90;;;;;;5044621;28;19917;-85
2021/01/24 00:38:09;;;;;;;;;;;2.70;99.90;;;;;;5037904;28;19912;-86
2021/01/24 00:40:35;;;;;;;;;;;2.60;99.90;;;;;;5035046;28;19920;-86
2021/01/24 00:43:00;;;;;;;;;;;2.50;99.90;;;;;;5042555;28;19913;-86
2021/01/24 00:45:25;;;;;;;;;;;2.40;99.90;;;;;;5038270;28;19916;-86
2021/01/24 00:47:51;;;;;;;;;;;2.30;99.90;;;;;;5054498;28;19913;-85
2021/01/24 00:50:16;;;;;;;;;;;2.20;99.90;;;;;;5046502;28;19919;-86
2021/01/24 00:52:42;;;;;;;;;;;2.10;99.90;;;;;;5056428;28;19920;-86
2021/01/24 00:55:07;;;;;;;;;;;2.00;99.90;;;;;;5057396;28;19916;-86
2021/01/24 00:57:33;;;;;;;;;;;1.90;99.90;;;;;;5058542;28;19966;-86
2021/01/24 00:59:58;;;;;;;;;;;1.90;99.90;;;;;;5060850;28;19966;-86
2021/01/24 01:02:24;;;;;;;;;;;1.80;99.90;;;;;;5058682;28;19980;-86
2021/01/24 01:04:50;;;;;;;;;;;1.70;99.90;;;;;;5035872;28;19929;-85
2021/01/24 01:07:15;;;;;;;;;;;1.60;99.90;;;;;;5056799;28;19920;-86
2021/01/24 01:09:41;;;;;;;;;;;1.60;99.90;;;;;;5044106;28;19917;-86
2021/01/24 01:12:06;;;;;;;;;;;1.50;99.90;;;;;;5062622;28;19916;-86
2021/01/24 01:14:32;;;;;;;;;;;1.50;99.90;;;;;;5062222;28;19924;-86
2021/01/24 01:16:57;;;;;;;;;;;1.50;99.90;;;;;;5060897;28;19923;-85
2021/01/24 01:19:23;;;;;;;;;;;1.40;99.90;;;;;;5063405;28;19913;-86
2021/01/24 01:21:48;;;;;;;;;;;1.40;99.90;;;;;;5063077;28;19924;-85
2021/01/24 01:24:17;;;;;;;;;;;1.40;99.90;;;;;;5041480;28;19917;-85
2021/01/24 01:26:42;;;;;;;;;;;1.40;99.90;;;;;;5065259;28;19908;-84
2021/01/24 01:29:08;;;;;;;;;;;1.30;99.90;;;;;;5063807;28;19917;-85
2021/01/24 01:31:33;;;;;;;;;;;1.30;99.90;;;;;;5060209;28;19920;-84
2021/01/24 01:33:59;;;;;;;;;;;1.30;99.90;;;;;;5040264;28;19917;-84
2021/01/24 01:36:24;;;;;;;;;;;1.30;99.90;;;;;;5041858;28;19913;-84
2021/01/24 01:38:50;;;;;;;;;;;1.20;99.90;;;;;;5052936;28;19920;-85
2021/01/24 01:41:15;;;;;;;;;;;1.20;99.90;;;;;;5059822;28;20607;-84
2021/01/24 01:43:41;;;;;;;;;;;1.20;99.90;;;;;;5028866;28;19959;-84
2021/01/24 01:46:06;;;;;;;;;;;1.20;99.90;;;;;;5059515;28;20296;-84
2021/01/24 01:48:32;;;;;;;;;;;1.10;99.90;;;;;;5059824;28;19913;-84
2021/01/24 01:50:58;;;;;;;;;;;1.10;99.90;;;;;;5061087;28;19908;-83
2021/01/24 01:53:24;;;;;;;;;;;1.10;99.90;;;;;;5042492;28;19920;-82
2021/01/24 01:55:50;;;;;;;;;;;1.10;99.90;;;;;;5041992;28;19917;-83
2021/01/24 01:58:15;;;;;;;;;;;1.00;99.90;;;;;;5058650;28;19987;-83
2021/01/24 02:00:41;;;;;;;;;;;1.00;99.90;;;;;;5061198;28;19932;-83
2021/01/24 02:03:13;;;;;;;;;;;1.00;99.90;;;;;;5041506;28;19920;-84
2021/01/24 02:05:44;;;;;;;;;;;1.00;99.90;;;;;;5061563;28;19917;-83
2021/01/24 02:08:12;;;;;;;;;;;1.00;99.90;;;;;;5042425;28;19912;-83
2021/01/24 02:10:44;;;;;;;;;;;1.00;99.90;;;;;;5057273;28;19960;-83
2021/01/24 02:13:12;;;;;;;;;;;1.00;99.90;;;;;;5043829;28;19917;-83
2021/01/24 02:15:41;;;;;;;;;;;1.00;99.90;;;;;;5061232;28;19916;-83
2021/01/24 02:18:07;;;;;;;;;;;1.00;99.90;;;;;;5041812;28;19913;-83
2021/01/24 02:20:35;;;;;;;;;;;1.00;99.90;;;;;;5060078;28;19940;-83
2021/01/24 02:23:00;;;;;;;;;;;1.00;99.90;;;;;;5062857;28;19913;-84
2021/01/24 02:25:35;;;;;;;;;;;1.10;99.90;;;;;;5060413;28;19923;-84
2021/01/24 02:28:20;;;;;;;;;;;1.10;99.90;;;;;;5044235;28;19941;-83
2021/01/24 02:30:46;;;;;;;;;;;1.00;99.90;;;;;;5045271;28;19923;-84
2021/01/24 02:33:14;;;;;;;;;;;1.00;99.90;;;;;;5043409;28;19913;-83
2021/01/24 02:35:44;;;;;;;;;;;1.00;99.90;;;;;;5037675;28;19913;-83
2021/01/24 02:38:10;;;;;;;;;;;1.00;99.90;;;;;;5060643;28;19959;-83
2021/01/24 02:40:37;;;;;;;;;;;1.10;99.90;;;;;;5055795;28;19913;-83
2021/01/24 02:43:04;;;;;;;;;;;1.00;99.90;;;;;;5059094;28;19917;-83
2021/01/24 02:45:31;;;;;;;;;;;1.10;99.90;;;;;;5059502;28;19923;-83
2021/01/24 02:47:57;;;;;;;;;;;1.00;99.90;;;;;;5057917;28;19919;-82
2021/01/24 02:50:22;;;;;;;;;;;1.00;99.90;;;;;;5058445;28;19913;-83
2021/01/24 02:52:48;;;;;;;;;;;1.00;99.90;;;;;;5055396;28;19912;-82
2021/01/24 02:55:14;;;;;;;;;;;1.00;99.90;;;;;;5049586;28;19923;-83
2021/01/24 02:57:40;;;;;;;;;;;1.00;99.90;;;;;;5058404;28;20399;-83
2021/01/24 03:00:06;;;;;;;;;;;1.00;99.90;;;;;;5057255;28;19913;-83
2021/01/24 03:02:32;;;;;;;;;;;1.00;99.90;;;;;;5041071;28;19976;-81
2021/01/24 03:04:57;;;;;;;;;;;1.00;99.90;;;;;;5057824;28;19970;-82
2021/01/24 03:07:22;;;;;;;;;;;1.00;99.90;;;;;;5057700;28;19913;-82
2021/01/24 03:09:48;;;;;;;;;;;1.00;99.90;;;;;;5056844;28;19920;-82
2021/01/24 03:12:15;;;;;;;;;;;1.00;99.90;;;;;;5051444;28;20367;-82
2021/01/24 03:14:41;;;;;;;;;;;1.00;99.90;;;;;;5034354;28;19948;-82
2021/01/24 03:17:07;;;;;;;;;;;1.00;99.90;;;;;;5054707;28;19956;-82
2021/01/24 03:19:33;;;;;;;;;;;1.00;99.90;;;;;;5039673;28;19912;-82
2021/01/24 03:22:00;;;;;;;;;;;1.00;99.90;;;;;;5040093;28;20000;-83
2021/01/24 03:24:26;;;;;;;;;;;1.10;99.90;;;;;;5056557;28;19939;-82
2021/01/24 03:26:51;;;;;;;;;;;1.00;99.90;;;;;;5059060;28;19909;-83
2021/01/24 03:29:17;;;;;;;;;;;1.00;99.90;;;;;;5035343;28;19916;-83
2021/01/24 03:31:43;;;;;;;;;;;1.00;99.90;;;;;;5039214;28;19909;-83
2021/01/24 03:34:14;;;;;;;;;;;1.00;99.90;;;;;;5039338;28;20385;-82
2021/01/24 03:36:40;;;;;;;;;;;1.00;99.90;;;;;;5040718;28;20423;-82
2021/01/24 03:39:05;;;;;;;;;;;1.00;99.90;;;;;;5056967;28;19916;-82
2021/01/24 03:41:31;;;;;;;;;;;1.00;99.90;;;;;;5040011;28;20436;-82
2021/01/24 03:43:56;;;;;;;;;;;1.10;99.90;;;;;;5036848;28;20284;-82
2021/01/24 03:46:21;;;;;;;;;;;1.10;99.90;;;;;;5057136;28;19919;-82
2021/01/24 03:48:47;;;;;;;;;;;1.10;99.90;;;;;;5036857;28;19921;-82
2021/01/24 03:51:12;;;;;;;;;;;1.10;99.90;;;;;;5040074;28;19909;-82
2021/01/24 03:53:38;;;;;;;;;;;1.10;99.90;;;;;;5056283;28;19913;-82
2021/01/24 03:56:03;;;;;;;;;;;1.10;99.90;;;;;;5038644;28;19920;-82
2021/01/24 03:58:29;;;;;;;;;;;1.10;99.90;;;;;;5038627;28;19912;-82
2021/01/24 04:00:54;;;;;;;;;;;1.10;99.90;;;;;;5036209;28;19947;-82
2021/01/24 04:03:20;;;;;;;;;;;1.20;99.90;;;;;;5039003;28;19920;-82
2021/01/24 04:05:46;;;;;;;;;;;1.20;99.90;;;;;;5037614;28;19916;-84
2021/01/24 04:08:13;;;;;;;;;;;1.20;99.90;;;;;;5038979;28;19913;-84
2021/01/24 04:10:39;;;;;;;;;;;1.20;99.90;;;;;;5032641;28;19913;-83
2021/01/24 04:13:04;;;;;;;;;;;1.20;99.90;;;;;;5064204;28;19919;-83
2021/01/24 04:15:29;;;;;;;;;;;1.20;99.90;;;;;;5055882;28;19935;-83
2021/01/24 04:17:55;;;;;;;;;;;1.20;99.90;;;;;;5035051;28;19920;-84
2021/01/24 04:20:20;;;;;;;;;;;1.20;99.90;;;;;;5051009;28;19920;-84
2021/01/24 04:22:46;;;;;;;;;;;1.20;99.90;;;;;;5056693;28;19936;-84
2021/01/24 04:25:13;;;;;;;;;;;1.20;99.90;;;;;;5038166;28;19924;-84
2021/01/24 04:27:39;;;;;;;;;;;1.20;99.90;;;;;;5039908;28;19917;-84
2021/01/24 04:30:05;;;;;;;;;;;1.20;99.90;;;;;;5056925;28;19973;-84
2021/01/24 04:32:30;;;;;;;;;;;1.20;99.90;;;;;;5040053;28;19948;-84
2021/01/24 04:34:56;;;;;;;;;;;1.20;99.90;;;;;;5051582;28;19913;-84
2021/01/24 04:37:21;;;;;;;;;;;1.20;99.90;;;;;;5039993;28;19972;-84
2021/01/24 04:39:47;;;;;;;;;;;1.20;99.90;;;;;;5056148;28;19923;-84
2021/01/24 04:42:13;;;;;;;;;;;1.30;99.90;;;;;;5042166;28;19908;-83
2021/01/24 04:44:38;;;;;;;;;;;1.30;99.90;;;;;;5041116;28;19992;-84
2021/01/24 04:47:04;;;;;;;;;;;1.30;99.90;;;;;;5060435;28;19966;-83
2021/01/24 04:49:30;;;;;;;;;;;1.30;99.90;;;;;;5041529;28;19913;-84
2021/01/24 04:51:55;;;;;;;;;;;1.30;99.90;;;;;;5047097;28;19913;-84
2021/01/24 04:54:22;;;;;;;;;;;1.30;99.90;;;;;;5048121;28;19913;-84
2021/01/24 04:56:47;;;;;;;;;;;1.40;99.90;;;;;;5059577;28;19962;-83
2021/01/24 04:59:13;;;;;;;;;;;1.40;99.90;;;;;;5059881;28;19913;-84
2021/01/24 05:01:39;;;;;;;;;;;1.40;99.90;;;;;;5059126;28;19913;-84
2021/01/24 05:04:04;;;;;;;;;;;1.40;99.90;;;;;;5044306;28;19940;-84
2021/01/24 05:06:30;;;;;;;;;;;1.40;99.90;;;;;;5060840;28;19927;-84
2021/01/24 05:08:59;;;;;;;;;;;1.40;99.90;;;;;;5039572;28;19921;-84
2021/01/24 05:11:25;;;;;;;;;;;1.40;99.90;;;;;;5044766;28;19980;-83
2021/01/24 05:13:50;;;;;;;;;;;1.50;99.90;;;;;;5064588;28;19957;-84
2021/01/24 05:16:19;;;;;;;;;;;1.50;99.90;;;;;;5043707;28;19964;-84
2021/01/24 05:18:54;;;;;;;;;;;1.50;99.90;;;;;;5043924;28;20336;-84
2021/01/24 05:21:19;;;;;;;;;;;1.50;99.90;;;;;;5060659;28;19991;-84
2021/01/24 05:23:45;;;;;;;;;;;1.50;99.90;;;;;;5060467;28;20387;-83
2021/01/24 05:26:11;;;;;;;;;;;1.50;99.90;;;;;;5038250;28;19924;-84
2021/01/24 05:28:45;;;;;;;;;;;1.50;99.90;;;;;;5037298;28;20015;-84
2021/01/24 05:31:11;;;;;;;;;;;1.50;99.90;;;;;;5057291;28;19913;-84
2021/01/24 05:33:42;;;;;;;;;;;1.50;99.90;;;;;;5046071;28;19964;-84
2021/01/24 05:36:07;;;;;;;;;;;1.50;99.90;;;;;;5042460;28;19924;-84
2021/01/24 05:38:33;;;;;;;;;;;1.50;99.90;;;;;;5060776;28;19912;-84
2021/01/24 05:41:03;;;;;;;;;;;1.50;99.90;;;;;;5043660;28;19920;-84
2021/01/24 05:43:33;;;;;;;;;;;1.50;99.90;;;;;;5061229;28;19956;-84
2021/01/24 05:45:59;;;;;;;;;;;1.50;99.90;;;;;;5037433;28;19916;-84
2021/01/24 05:48:24;;;;;;;;;;;1.50;99.90;;;;;;5044417;28;19947;-83
2021/01/24 05:50:51;;;;;;;;;;;1.50;99.90;;;;;;5062631;28;19916;-83
2021/01/24 05:53:17;;;;;;;;;;;1.50;99.90;;;;;;5061414;28;19919;-84
2021/01/24 05:55:43;;;;;;;;;;;1.50;99.90;;;;;;5058055;28;19912;-84
2021/01/24 05:58:19;;;;;;;;;;;1.50;99.90;;;;;;5068406;28;20046;-84
2021/01/24 06:00:46;;;;;;;;;;;1.50;99.90;;;;;;5044450;28;19913;-83
2021/01/24 06:03:11;;;;;;;;;;;1.50;99.90;;;;;;5043028;28;19912;-83
2021/01/24 06:05:37;;;;;;;;;;;1.50;99.90;;;;;;5043574;28;19970;-84
2021/01/24 06:08:03;;;;;;;;;;;1.50;99.90;;;;;;5044524;28;19912;-84
2021/01/24 06:10:29;;;;;;;;;;;1.60;99.90;;;;;;5040544;28;19986;-84
2021/01/24 06:12:57;;;;;;;;;;;1.60;99.90;;;;;;5048133;28;19990;-83
2021/01/24 06:15:23;;;;;;;;;;;1.60;99.90;;;;;;5055705;28;19913;-84
2021/01/24 06:17:49;;;;;;;;;;;1.60;99.90;;;;;;5045807;28;19913;-83
2021/01/24 06:20:17;;;;;;;;;;;1.60;99.90;;;;;;5043861;28;19920;-83
2021/01/24 06:22:44;;;;;;;;;;;1.60;99.90;;;;;;5063461;28;20339;-84
2021/01/24 06:25:12;;;;;;;;;;;1.60;99.90;;;;;;5061698;28;19951;-83
2021/01/24 06:27:39;;;;;;;;;;;1.60;99.90;;;;;;5039578;28;19917;-83
2021/01/24 06:30:11;;;;;;;;;;;1.60;99.90;;;;;;5044097;28;19920;-83
2021/01/24 06:32:36;;;;;;;;;;;1.60;99.90;;;;;;5059888;28;19913;-83
2021/01/24 06:35:19;;;;;;;;;;;1.60;99.90;;;;;;5044281;28;20433;-83
2021/01/24 06:38:10;;;;;;;;;;;1.60;99.90;;;;;;5043882;28;19920;-83
2021/01/24 06:40:41;;;;;;;;;;;1.60;99.90;;;;;;5059905;28;19936;-83
2021/01/24 06:43:07;;;;;;;;;;;1.60;99.90;;;;;;5043167;28;20690;-83
2021/01/24 06:45:32;;;;;;;;;;;1.60;99.90;;;;;;5042729;28;19924;-83
2021/01/24 06:47:59;;;;;;;;;;;1.70;99.90;;;;;;5046449;28;19916;-84
2021/01/24 06:50:43;;;;;;;;;;;1.70;99.90;;;;;;5061411;28;19916;-84
2021/01/24 06:53:12;;;;;;;;;;;1.70;99.90;;;;;;5044402;28;19908;-84
2021/01/24 06:55:38;;;;;;;;;;;1.70;99.90;;;;;;5042795;28;20082;-84
2021/01/24 06:58:23;;;;;;;;;;;1.70;99.90;;;;;;5041947;28;19955;-83
2021/01/24 07:00:49;;;;;;;;;;;1.80;99.90;;;;;;5042983;28;19917;-84
2021/01/24 07:03:15;;;;;;;;;;;1.80;99.90;;;;;;5040483;28;19936;-82
2021/01/24 07:05:41;;;;;;;;;;;1.80;99.90;;;;;;5040869;28;19924;-83
2021/01/24 07:08:26;;;;;;;;;;;1.90;99.90;;;;;;5050364;28;19917;-82
2021/01/24 07:10:52;;;;;;;;;;;2.00;99.90;;;;;;5042713;28;19913;-83
2021/01/24 07:13:23;;;;;;;;;;;2.00;99.90;;;;;;5061167;28;19940;-82
2021/01/24 07:15:53;;;;;;;;;;;2.10;99.90;;;;;;5043076;28;19959;-83
2021/01/24 07:18:19;;;;;;;;;;;2.10;99.90;;;;;;5058589;28;19958;-82
2021/01/24 07:20:45;;;;;;;;;;;2.10;99.90;;;;;;5048740;28;19912;-83
2021/01/24 07:23:10;;;;;;;;;;;2.10;99.90;;;;;;5040470;28;20058;-82
2021/01/24 07:25:36;;;;;;;;;;;2.10;99.90;;;;;;5059386;28;19948;-82
2021/01/24 07:28:02;;;;;;;;;;;2.10;99.90;;;;;;5029664;28;19909;-82
2021/01/24 07:30:27;;;;;;;;;;;2.10;99.90;;;;;;5026972;28;20024;-81
2021/01/24 07:32:53;;;;;;;;;;;2.10;99.90;;;;;;5037619;28;19976;-82
2021/01/24 07:35:19;;;;;;;;;;;2.10;99.90;;;;;;5055036;28;19923;-82
2021/01/24 07:37:47;;;;;;;;;;;2.10;99.90;;;;;;5032601;28;19920;-82
2021/01/24 07:40:12;;;;;;;;;;;2.10;99.90;;;;;;5036459;28;20003;-81
2021/01/24 07:42:38;;;;;;;;;;;2.10;99.90;;;;;;5051257;28;19948;-82
2021/01/24 07:45:04;;;;;;;;;;;2.10;99.90;;;;;;5026814;28;19928;-83
2021/01/24 07:47:29;;;;;;;;;;;2.10;99.90;;;;;;5035686;28;19916;-82
2021/01/24 07:49:55;;;;;;;;;;;2.20;99.90;;;;;;5030923;28;19912;-82
2021/01/24 07:52:20;;;;;;;;;;;2.20;99.90;;;;;;5055966;28;19938;-82
2021/01/24 07:54:46;;;;;;;;;;;2.20;99.90;;;;;;5055112;28;19912;-82
2021/01/24 07:57:12;;;;;;;;;;;2.20;99.90;;;;;;5054853;28;20368;-82
2021/01/24 07:59:38;;;;;;;;;;;2.20;99.90;;;;;;5056232;28;19936;-81
2021/01/24 08:02:04;;;;;;;;;;;2.20;99.90;;;;;;5055045;28;19990;-81
2021/01/24 08:04:32;;;;;;;;;;;2.30;99.90;;;;;;5036954;28;19917;-81
2021/01/24 08:06:58;;;;;;;;;;;2.30;99.90;;;;;;5041440;28;19917;-82
2021/01/24 08:09:23;;;;;;;;;;;2.40;99.90;;;;;;5036622;28;19994;-81
2021/01/24 08:11:49;;;;;;;;;;;2.40;99.90;;;;;;5054952;28;19913;-82
2021/01/24 08:14:14;;;;;;;;;;;2.40;99.90;;;;;;5048218;28;19909;-82
2021/01/24 08:16:48;;;;;;;;;;;2.50;99.90;;;;;;5037703;28;20011;-82
2021/01/24 08:19:16;;;;;;;;;;;2.50;99.90;;;;;;5033493;28;19959;-81
2021/01/24 08:21:41;;;;;;;;;;;2.60;99.90;;;;;;5037565;28;19909;-82
2021/01/24 08:24:08;;;;;;;;;;;2.60;99.90;;;;;;5055061;28;19920;-85
2021/01/24 08:26:34;;;;;;;;;;;2.60;99.90;;;;;;5038130;28;19920;-83
2021/01/24 08:29:00;;;;;;;;;;;2.60;99.90;;;;;;5038455;28;19913;-84
2021/01/24 08:31:27;;;;;;;;;;;2.70;99.90;;;;;;5055376;28;19913;-82
2021/01/24 08:33:52;;;;;;;;;;;2.70;99.90;;;;;;5037858;28;19920;-83
2021/01/24 08:36:19;;;;;;;;;;;2.70;99.90;;;;;;5037933;28;19913;-83
2021/01/24 08:38:46;;;;;;;;;;;2.80;99.90;;;;;;5053669;28;19913;-83
2021/01/24 08:41:11;;;;;;;;;;;2.80;99.90;;;;;;5037835;28;19912;-84
2021/01/24 08:43:38;;;;;;;;;;;2.80;99.90;;;;;;5038691;28;20281;-82
2021/01/24 08:46:19;;;;;;;;;;;2.90;99.90;;;;;;5030218;28;19917;-84
2021/01/24 08:48:57;;;;;;;;;;;2.90;99.90;;;;;;5036774;28;19963;-83
2021/01/24 08:51:22;;;;;;;;;;;2.90;99.90;;;;;;5051289;28;19913;-83
2021/01/24 08:53:48;;;;;;;;;;;3.00;99.90;;;;;;5054971;28;19943;-84
2021/01/24 08:56:19;;;;;;;;;;;3.00;99.90;;;;;;5052661;28;19920;-83
2021/01/24 08:58:44;;;;;;;;;;;3.00;99.90;;;;;;5035761;28;19913;-84
2021/01/24 09:01:10;;;;;;;;;;;3.00;99.90;;;;;;5055762;28;20300;-84
2021/01/24 09:03:35;;;;;;;;;;;3.00;99.90;;;;;;5045585;28;20369;-83
2021/01/24 09:06:16;;;;;;;;;;;3.10;99.90;;;;;;5058546;28;20014;-84
2021/01/24 09:08:50;;;;;;;;;;;3.10;99.90;;;;;;5036528;28;19909;-82
2021/01/24 09:11:16;;;;;;;;;;;3.20;99.90;;;;;;5052426;28;19920;-84
2021/01/24 09:13:42;;;;;;;;;;;3.20;99.90;;;;;;5028290;28;20419;-83
2021/01/24 09:16:07;;;;;;;;;;;3.20;99.90;;;;;;5037546;28;19912;-84
2021/01/24 09:18:33;;;;;;;;;;;3.20;99.90;;;;;;5037384;28;19909;-83
2021/01/24 09:20:59;;;;;;;;;;;3.30;99.90;;;;;;5037975;28;19984;-84
2021/01/24 09:23:25;;;;;;;;;;;3.30;99.90;;;;;;5037664;28;19913;-84
2021/01/24 09:25:50;;;;;;;;;;;3.40;99.90;;;;;;5056010;28;20180;-83
2021/01/24 09:28:16;;;;;;;;;;;3.40;99.90;;;;;;5055264;28;20547;-84
2021/01/24 09:30:41;;;;;;;;;;;3.40;99.90;;;;;;5031913;28;19913;-84
2021/01/24 09:33:07;;;;;;;;;;;3.50;99.90;;;;;;5069084;28;19912;-84
2021/01/24 09:35:32;;;;;;;;;;;3.50;99.90;;;;;;5052543;28;19973;-85
2021/01/24 09:37:58;;;;;;;;;;;3.50;99.90;;;;;;5051592;28;20376;-83
2021/01/24 09:40:23;;;;;;;;;;;3.60;99.90;;;;;;5041104;28;19972;-83
2021/01/24 09:42:49;;;;;;;;;;;3.70;99.90;;;;;;5051049;28;19919;-84
2021/01/24 09:45:14;;;;;;;;;;;3.70;99.90;;;;;;5054342;28;20035;-84
2021/01/24 09:47:39;;;;;;;;;;;3.70;99.90;;;;;;5053825;28;19913;-83
2021/01/24 09:50:05;;;;;;;;;;;3.80;99.90;;;;;;5056885;28;19912;-83
2021/01/24 09:52:31;;;;;;;;;;;3.90;99.90;;;;;;5056323;28;19924;-85
2021/01/24 09:54:56;;;;;;;;;;;3.90;99.90;;;;;;5058742;28;19916;-84
2021/01/24 09:57:22;;;;;;;;;;;3.90;99.90;;;;;;5039759;28;19913;-84
2021/01/24 09:59:47;;;;;;;;;;;3.90;99.90;;;;;;5057688;28;19924;-84
2021/01/24 10:02:12;;;;;;;;;;;3.90;99.90;;;;;;5046300;28;19999;-82
2021/01/24 10:04:38;;;;;;;;;;;3.90;99.90;;;;;;5044762;28;19917;-83
2021/01/24 10:07:03;;;;;;;;;;;3.80;99.90;;;;;;5039710;28;19917;-85
2021/01/24 10:09:29;;;;;;;;;;;3.80;99.90;;;;;;5039130;28;19920;-87
2021/01/24 10:11:54;;;;;;;;;;;3.90;99.90;;;;;;5046180;28;19948;-84
2021/01/24 10:14:20;;;;;;;;;;;4.10;99.90;;;;;;5037800;28;19913;-82
2021/01/24 10:16:45;;;;;;;;;;;4.40;99.90;;;;;;5062168;28;19913;-83
2021/01/24 10:19:11;;;;;;;;;;;4.40;99.90;;;;;;5054422;28;19920;-84
2021/01/24 10:21:36;;;;;;;;;;;4.60;99.90;;;;;;5039322;28;20395;-83
2021/01/24 10:24:02;;;;;;;;;;;4.70;99.90;;;;;;5045035;28;20388;-84
2021/01/24 10:26:27;;;;;;;;;;;4.70;99.90;;;;;;5040526;28;19932;-84
2021/01/24 10:28:52;;;;;;;;;;;4.80;99.90;;;;;;5045526;28;19913;-81
2021/01/24 10:31:18;;;;;;;;;;;4.80;99.90;;;;;;5037990;28;19912;-82
2021/01/24 10:33:45;;;;;;;;;;;4.80;99.90;;;;;;5053588;28;19917;-86
2021/01/24 10:36:10;;;;;;;;;;;4.90;99.90;;;;;;5033098;28;19913;-82
2021/01/24 10:38:36;;;;;;;;;;;5.00;99.90;;;;;;5027962;28;19913;-83
2021/01/24 10:41:01;;;;;;;;;;;5.20;99.90;;;;;;5033859;28;19913;-84
2021/01/24 10:43:26;;;;;;;;;;;5.40;99.90;;;;;;5055494;28;19936;-83
2021/01/24 10:45:52;;;;;;;;;;;5.60;99.90;;;;;;5034436;28;19959;-82
2021/01/24 10:48:17;;;;;;;;;;;5.60;99.90;;;;;;5055885;28;19913;-82
2021/01/24 10:50:43;;;;;;;;;;;5.70;99.90;;;;;;5054477;28;19913;-82
2021/01/24 10:53:09;;;;;;;;;;;5.70;99.90;;;;;;5051867;28;19916;-82
2021/01/24 10:55:35;;;;;;;;;;;5.70;99.90;;;;;;5047630;28;20000;-82
2021/01/24 10:58:00;;;;;;;;;;;5.70;99.90;;;;;;5064595;28;19931;-82
2021/01/24 11:00:26;;;;;;;;;;;5.90;99.90;;;;;;5050671;28;19912;-82
2021/01/24 11:02:51;;;;;;;;;;;6.10;99.90;;;;;;5044182;28;20344;-81
2021/01/24 11:05:16;;;;;;;;;;;6.10;99.90;;;;;;5053801;28;19937;-83
2021/01/24 11:07:42;;;;;;;;;;;6.10;99.90;;;;;;5050133;28;19917;-82
2021/01/24 11:10:08;;;;;;;;;;;6.30;99.90;;;;;;5032934;28;19966;-82
2021/01/24 11:12:33;;;;;;;;;;;6.40;99.90;;;;;;5036973;28;19913;-82
2021/01/24 11:14:59;;;;;;;;;;;6.40;99.90;;;;;;5049130;28;19916;-81
2021/01/24 11:17:25;;;;;;;;;;;6.50;99.90;;;;;;5056268;28;20434;-82
2021/01/24 11:19:51;;;;;;;;;;;6.60;99.90;;;;;;5047013;28;19958;-82
2021/01/24 11:22:18;;;;;;;;;;;6.80;99.90;;;;;;5035657;28;19939;-82
2021/01/24 11:24:44;;;;;;;;;;;6.90;99.90;;;;;;5051272;28;19917;-82
2021/01/24 11:27:09;;;;;;;;;;;7.10;99.90;;;;;;5050872;28;19981;-81
2021/01/24 11:29:35;;;;;;;;;;;7.20;99.90;;;;;;5055781;28;19913;-81
2021/01/24 11:32:00;;;;;;;;;;;7.40;99.90;;;;;;5055952;28;19919;-82
2021/01/24 11:34:26;;;;;;;;;;;8.00;99.90;;;;;;5038882;28;19919;-82
2021/01/24 11:36:52;;;;;;;;;;;8.20;99.90;;;;;;5054934;28;19966;-82
2021/01/24 11:39:17;;;;;;;;;;;8.60;99.90;;;;;;5056158;28;19919;-81
2021/01/24 11:41:43;;;;;;;;;;;10.10;99.90;;;;;;5028993;28;19913;-83
2021/01/24 11:44:09;;;;;;;;;;;11.30;99.90;;;;;;5039055;28;19913;-83
2021/01/24 11:46:34;;;;;;;;;;;12.60;99.90;;;;;;5038837;28;19913;-83
2021/01/24 11:49:00;;;;;;;;;;;13.60;99.90;;;;;;5059408;28;19960;-83
2021/01/24 11:51:25;;;;;;;;;;;14.50;99.90;;;;;;5038782;28;19920;-83
2021/01/24 11:53:51;;;;;;;;;;;15.10;99.90;;;;;;5054805;28;20014;-85
2021/01/24 11:56:16;;;;;;;;;;;15.60;99.90;;;;;;5040503;28;19920;-82
2021/01/24 11:58:42;;;;;;;;;;;16.00;99.90;;;;;;5037557;28;19913;-81
2021/01/24 12:01:07;;;;;;;;;;;16.40;99.90;;;;;;5040059;28;19919;-81
2021/01/24 12:03:33;;;;;;;;;;;16.70;99.90;;;;;;5039933;28;19913;-83
2021/01/24 12:05:58;;;;;;;;;;;16.90;99.90;;;;;;5065604;28;19991;-83
2021/01/24 12:08:24;;;;;;;;;;;17.30;99.90;;;;;;5062970;28;20381;-82
2021/01/24 12:10:49;;;;;;;;;;;17.50;99.90;;;;;;5053282;28;19940;-82
2021/01/24 12:13:15;;;;;;;;;;;17.70;99.90;;;;;;5049531;28;19947;-83
2021/01/24 12:15:40;;;;;;;;;;;17.80;99.90;;;;;;5056261;28;20000;-82
2021/01/24 12:18:05;;;;;;;;;;;18.00;99.90;;;;;;5040536;28;19920;-82
2021/01/24 12:20:31;;;;;;;;;;;18.10;99.90;;;;;;5059411;28;19938;-83
2021/01/24 12:22:57;;;;;;;;;;;18.10;99.90;;;;;;5042064;28;19967;-82
2021/01/24 12:25:22;;;;;;;;;;;18.00;99.90;;;;;;5058858;28;20387;-82
2021/01/24 12:27:48;;;;;;;;;;;17.90;99.90;;;;;;5041791;28;19908;-82
2021/01/24 12:30:13;;;;;;;;;;;17.80;99.90;;;;;;5040633;28;19920;-83
2021/01/24 12:32:39;;;;;;;;;;;17.90;99.90;;;;;;5041127;28;19944;-82
2021/01/24 12:35:05;;;;;;;;;;;17.40;99.90;;;;;;5058091;28;19943;-83
2021/01/24 12:37:31;;;;;;;;;;;16.80;99.90;;;;;;5058249;28;19909;-82
2021/01/24 12:39:56;;;;;;;;;;;16.30;99.90;;;;;;5036043;28;19920;-83
2021/01/24 12:42:22;;;;;;;;;;;15.60;99.90;;;;;;5064036;28;19915;-81
2021/01/24 12:44:47;;;;;;;;;;;15.20;99.90;;;;;;5070491;28;19959;-82
2021/01/24 12:47:13;;;;;;;;;;;15.40;99.90;;;;;;5054806;28;19909;-82
2021/01/24 12:49:38;;;;;;;;;;;15.60;99.90;;;;;;5057201;28;19920;-83
2021/01/24 12:52:04;;;;;;;;;;;15.70;99.90;;;;;;5037606;28;19910;-82
2021/01/24 12:54:29;;;;;;;;;;;16.00;99.90;;;;;;5036076;28;19963;-82
2021/01/24 12:56:55;;;;;;;;;;;16.00;99.90;;;;;;5037920;28;19916;-82
2021/01/24 12:59:20;;;;;;;;;;;16.10;99.90;;;;;;5055490;28;19935;-82
2021/01/24 13:01:46;;;;;;;;;;;16.10;99.90;;;;;;5059128;28;20537;-82
2021/01/24 13:04:11;;;;;;;;;;;15.90;99.90;;;;;;5061870;28;20280;-82
2021/01/24 13:06:36;;;;;;;;;;;15.80;99.90;;;;;;5060418;28;20335;-82
2021/01/24 13:09:03;;;;;;;;;;;15.50;99.90;;;;;;5072111;28;20029;-83
2021/01/24 13:11:29;;;;;;;;;;;14.90;99.90;;;;;;5079294;28;20407;-83
2021/01/24 13:13:54;;;;;;;;;;;14.00;99.90;;;;;;5044472;28;19908;-82
2021/01/24 13:16:20;;;;;;;;;;;13.60;99.90;;;;;;5044434;28;19913;-83
2021/01/24 13:18:45;;;;;;;;;;;13.50;99.90;;;;;;5045074;28;19945;-83
2021/01/24 13:21:11;;;;;;;;;;;13.80;99.90;;;;;;5045672;28;19909;-81
2021/01/24 13:23:36;;;;;;;;;;;13.70;99.90;;;;;;5040857;28;19936;-81
2021/01/24 13:26:02;;;;;;;;;;;13.20;99.90;;;;;;5044217;28;19916;-82
2021/01/24 13:28:27;;;;;;;;;;;12.90;99.90;;;;;;5059292;28;19913;-82
2021/01/24 13:30:52;;;;;;;;;;;12.40;99.90;;;;;;5063720;28;19992;-83
2021/01/24 13:33:18;;;;;;;;;;;11.80;99.90;;;;;;5044329;28;20397;-82
2021/01/24 13:35:44;;;;;;;;;;;11.30;99.90;;;;;;5049564;28;20000;-81
2021/01/24 13:38:09;;;;;;;;;;;10.90;99.90;;;;;;5072040;28;19976;-82
2021/01/24 13:40:35;;;;;;;;;;;10.60;99.90;;;;;;5073566;28;19917;-82
2021/01/24 13:43:00;;;;;;;;;;;10.50;99.90;;;;;;5049156;28;19913;-83
2021/01/24 13:45:26;;;;;;;;;;;10.20;99.90;;;;;;5062558;28;19935;-81
2021/01/24 13:47:52;;;;;;;;;;;9.90;99.90;;;;;;5075325;28;19920;-82
2021/01/24 13:50:17;;;;;;;;;;;9.70;99.90;;;;;;5063192;28;20285;-82
2021/01/24 13:52:43;;;;;;;;;;;9.70;99.90;;;;;;5062008;28;19935;-81
2021/01/24 13:55:08;;;;;;;;;;;9.80;99.90;;;;;;5062884;28;19912;-84
2021/01/24 13:57:34;;;;;;;;;;;9.80;99.90;;;;;;5059547;28;19913;-82
2021/01/24 13:59:59;;;;;;;;;;;9.70;99.90;;;;;;5042490;28;20357;-82
2021/01/24 14:02:25;;;;;;;;;;;9.50;99.90;;;;;;5060007;28;19919;-81
2021/01/24 14:04:51;;;;;;;;;;;9.40;99.90;;;;;;5061499;28;20008;-83
2021/01/24 14:07:16;;;;;;;;;;;9.20;99.90;;;;;;5043906;28;19920;-83
2021/01/24 14:09:41;;;;;;;;;;;8.90;99.90;;;;;;5062386;28;19909;-84
2021/01/24 14:12:07;;;;;;;;;;;8.80;99.90;;;;;;5049600;28;19919;-84
2021/01/24 14:14:33;;;;;;;;;;;8.60;99.90;;;;;;5038146;28;19969;-82
2021/01/24 14:16:58;;;;;;;;;;;8.50;99.90;;;;;;5042878;28;19912;-82
2021/01/24 14:19:24;;;;;;;;;;;8.30;99.90;;;;;;5043808;28;20322;-83
2021/01/24 14:21:49;;;;;;;;;;;8.20;99.90;;;;;;5042381;28;19920;-82
2021/01/24 14:24:15;;;;;;;;;;;8.10;99.90;;;;;;5042391;28;19913;-81